Terminal Aerodrome Forecast
Issued by NWS Mt. Holly, NJ

Home | Current Version | Previous Version | Text Only | Print | Product List | Glossary On
Versions: 1 2 3 4 5 6 7 8 9 10 11 12 13 14 15 16 17
000
FTUS41 KPHI 021725
TAFTTN
TAF
KTTN 021725Z 0218/0318 24005KT 6SM HZ FEW050 BKN250
     FM022000 32007KT P6SM SCT060 SCT250
     FM030000 15005KT P6SM SCT250
     FM030700 00000KT 4SM BR SCT250
      TEMPO 0308/0312 1SM BR SCT002
     FM031300 36005KT P6SM SCT250=

USA.gov is the U.S. government's official web portal to all federal, state and local government web resources and services.